Time;durP1;ratioP1;P1;durP2;ratioP2;P2;SDS_P1;SDS_P2;PMS_P1;PMS_P2;Temp;Humidity;BMP_temperature;BMP_pressure;BME280_temperature;BME280_humidity;BME280_pressure;Samples;Min_cycle;Max_cycle;Signal;HPM_P1;HPM_P2
2022/08/11 00:01:28;;;;;;;7.17;5.13;;;;;;;18.75;70.19;100603.91;125266;1099;102773;-80
2022/08/11 00:04:05;;;;;;;9.43;4.77;;;;;;;18.73;69.82;100614.53;125276;1099;104325;-80
2022/08/11 00:06:48;;;;;;;7.78;4.65;;;;;;;18.72;70.14;100610.09;126145;1099;104208;-80
2022/08/11 00:09:31;;;;;;;6.97;4.87;;;;;;;18.72;70.39;100611.88;126328;1099;104683;-79
2022/08/11 00:12:15;;;;;;;8.75;5.00;;;;;;;18.74;70.25;100618.07;125453;1099;104169;-80
2022/08/11 00:15:01;;;;;;;7.97;4.80;;;;;;;18.73;70.00;100610.97;125958;1099;102149;-79
2022/08/11 00:17:44;;;;;;;6.60;4.60;;;;;;;18.74;70.07;100604.78;125864;1099;102140;-80
2022/08/11 00:20:18;;;;;;;7.43;4.90;;;;;;;18.74;70.27;100607.44;125987;1098;104632;-80
2022/08/11 00:23:06;;;;;;;8.17;4.87;;;;;;;18.75;70.61;100609.23;125923;1099;104245;-80
2022/08/11 00:25:43;;;;;;;7.80;4.40;;;;;;;18.74;70.41;100603.00;125951;1099;104252;-80
2022/08/11 00:28:31;;;;;;;7.95;5.10;;;;;;;18.74;70.54;100603.00;125926;1099;104159;-80
2022/08/11 00:31:08;;;;;;;5.87;4.40;;;;;;;18.74;70.46;100603.00;126052;1099;102492;-80
2022/08/11 00:33:43;;;;;;;8.33;4.57;;;;;;;18.76;70.75;100610.98;126750;1099;104216;-81
2022/08/11 00:36:19;;;;;;;9.27;4.67;;;;;;;18.76;70.07;100606.58;125942;1099;103203;-81
2022/08/11 00:38:54;;;;;;;6.07;4.13;;;;;;;18.75;70.72;100609.23;125981;1099;102890;-80
2022/08/11 00:41:36;;;;;;;6.77;4.60;;;;;;;18.75;70.82;100598.59;126712;1098;102300;-80
2022/08/11 00:44:24;;;;;;;8.17;4.37;;;;;;;18.73;70.94;100606.56;126000;1099;102771;-80
2022/08/11 00:47:17;;;;;;;6.50;4.53;;;;;;;18.75;70.55;100612.77;125886;1099;104162;-80
2022/08/11 00:50:10;;;;;;;6.70;4.40;;;;;;;18.76;70.22;100619.86;125927;1099;104070;-81
2022/08/11 00:53:15;;;;;;;7.93;4.60;;;;;;;18.78;70.39;100599.48;125998;1098;102265;-80
2022/08/11 00:56:17;;;;;;;6.47;4.30;;;;;;;18.79;70.44;100603.02;126489;1099;104031;-80
2022/08/11 00:59:38;;;;;;;7.37;4.40;;;;;;;18.78;70.73;100604.80;125792;1099;102797;-80
2022/08/11 01:02:19;;;;;;;7.47;4.43;;;;;;;18.79;70.34;100600.36;125254;1102;104166;-80
2022/08/11 01:05:36;;;;;;;7.93;4.80;;;;;;;18.80;70.11;100602.14;125200;1102;104165;-80
2022/08/11 01:08:49;;;;;;;6.93;4.40;;;;;;;18.82;70.86;100603.94;124983;1102;102519;-80
2022/08/11 01:12:05;;;;;;;8.63;4.57;;;;;;;18.82;70.83;100605.69;125532;1103;101967;-80
2022/08/11 01:15:36;;;;;;;9.90;5.03;;;;;;;18.82;70.18;100608.34;125142;1102;102736;-80
2022/08/11 01:18:52;;;;;;;7.53;4.30;;;;;;;18.82;70.33;100600.38;125008;1102;102635;-81
2022/08/11 01:22:09;;;;;;;6.57;4.27;;;;;;;18.81;70.52;100595.96;125053;1102;117730;-80
2022/08/11 01:25:19;;;;;;;7.17;4.73;;;;;;;18.81;71.14;100593.30;125001;1102;104275;-80
2022/08/11 01:28:15;;;;;;;6.67;4.20;;;;;;;18.82;70.18;100598.62;125570;1105;104450;-81
2022/08/11 01:31:20;;;;;;;6.37;4.30;;;;;;;18.84;70.30;100603.95;125660;1103;101846;-80
2022/08/11 01:34:28;;;;;;;7.80;4.50;;;;;;;18.83;70.65;100600.38;125163;1102;104795;-80
2022/08/11 01:37:27;;;;;;;8.20;5.07;;;;;;;18.84;70.54;100594.22;125279;1102;104274;-81
2022/08/11 01:40:22;;;;;;;5.67;3.93;;;;;;;18.84;70.38;100601.29;125189;1102;104245;-81
2022/08/11 01:46:31;;;;;;;6.50;4.20;;;;;;;18.85;70.33;100601.33;125972;1102;101913;-80
2022/08/11 01:49:10;;;;;;;5.93;3.97;;;;;;;18.84;70.25;100599.54;126331;1099;104225;-81
2022/08/11 01:52:01;;;;;;;11.00;4.83;;;;;;;18.86;70.97;100607.52;125983;1099;102113;-80
2022/08/11 01:54:43;;;;;;;6.30;4.23;;;;;;;18.86;71.00;100602.20;126137;1098;102108;-80
2022/08/11 01:57:35;;;;;;;7.83;5.17;;;;;;;18.85;70.55;100596.02;126178;1099;104178;-80
2022/08/11 02:00:14;;;;;;;5.03;4.07;;;;;;;18.83;70.94;100597.72;125959;1099;104175;-80
2022/08/11 02:03:01;;;;;;;6.93;4.37;;;;;;;18.82;70.93;100595.97;126106;1099;104198;-80
2022/08/11 02:05:44;;;;;;;6.67;3.97;;;;;;;18.79;71.12;100597.70;125919;1099;104253;-80
2022/08/11 02:08:34;;;;;;;5.65;3.80;;;;;;;18.77;71.23;100592.38;126055;1099;102203;-80
2022/08/11 02:11:31;;;;;;;7.13;3.87;;;;;;;18.76;71.32;100595.03;125927;1099;104264;-80
2022/08/11 02:14:19;;;;;;;6.00;3.77;;;;;;;18.74;70.94;100597.69;125971;1098;104184;-79
2022/08/11 02:17:15;;;;;;;5.77;3.83;;;;;;;18.74;71.04;100596.81;126025;1099;102357;-79
2022/08/11 02:25:50;;;;;;;5.73;3.90;;;;;;;18.69;70.62;100584.38;125996;1099;104175;-80
2022/08/11 02:28:29;;;;;;;8.57;4.20;;;;;;;18.66;71.35;100594.13;125899;1099;104166;-79
2022/08/11 02:34:17;;;;;;;4.57;3.60;;;;;;;18.60;71.08;100597.63;125921;1099;102327;-80
2022/08/11 02:36:56;;;;;;;6.30;3.80;;;;;;;18.57;71.69;100583.45;127477;1098;102032;-79
2022/08/11 02:39:38;;;;;;;6.57;4.10;;;;;;;18.56;71.06;100590.55;126048;1099;101754;-80
2022/08/11 02:42:28;;;;;;;8.73;4.23;;;;;;;18.54;71.38;100586.09;125939;1099;102136;-80
2022/08/11 02:45:14;;;;;;;8.10;4.05;;;;;;;18.52;70.97;100590.52;125966;1099;104219;-79
2022/08/11 02:50:42;;;;;;;5.83;3.60;;;;;;;18.50;71.69;100591.39;125989;1099;102283;-80
2022/08/11 02:53:25;;;;;;;6.50;3.93;;;;;;;18.46;71.68;100592.25;125969;1099;102237;-80
2022/08/11 02:56:03;;;;;;;7.27;3.90;;;;;;;18.47;71.27;100590.50;125972;1099;104173;-79
2022/08/11 02:59:48;;;;;;;6.87;3.90;;;;;;;18.46;71.13;100586.05;125963;1099;104169;-79
2022/08/11 03:01:47;;;;;;;5.93;3.80;;;;;;;18.45;71.64;100595.80;126040;1099;102810;-80
2022/08/11 03:04:25;;;;;;;7.10;4.20;;;;;;;18.47;71.38;100593.16;125870;1099;102890;-80
2022/08/11 03:07:06;;;;;;;4.80;3.83;;;;;;;18.45;71.41;100589.58;125200;1099;104874;-79
2022/08/11 03:09:51;;;;;;;5.70;3.90;;;;;;;18.47;71.86;100587.84;125272;1102;103002;-80
2022/08/11 03:18:25;;;;;;;5.70;3.97;;;;;;;18.40;72.06;100580.71;125215;1102;102384;-80
2022/08/11 03:21:06;;;;;;;7.90;4.27;;;;;;;18.41;72.19;100585.16;125276;1102;104188;-80
2022/08/11 03:23:46;;;;;;;8.77;4.20;;;;;;;18.40;72.02;100586.02;125623;1102;102130;-80
2022/08/11 03:26:32;;;;;;;8.50;4.17;;;;;;;18.40;72.35;100584.28;125238;1102;103551;-79
2022/08/11 03:29:11;;;;;;;6.90;3.93;;;;;;;18.40;72.27;100584.28;125340;1102;102830;-81
2022/08/11 03:31:53;;;;;;;12.33;4.50;;;;;;;18.41;72.17;100582.50;125204;1102;104275;-81
2022/08/11 03:34:27;;;;;;;9.80;3.77;;;;;;;18.40;72.06;100570.09;125283;1102;104220;-80
2022/08/11 03:37:49;;;;;;;9.57;4.20;;;;;;;18.38;72.30;100578.05;125219;1102;104350;-80
2022/08/11 03:44:00;;;;;;;9.70;4.30;;;;;;;18.36;72.37;100574.51;125281;1099;103206;-80
2022/08/11 03:46:44;;;;;;;8.40;4.07;;;;;;;18.39;72.80;100568.33;125204;1099;102281;-80
2022/08/11 03:49:31;;;;;;;7.93;4.30;;;;;;;18.41;72.38;100566.56;125201;1099;103228;-80
2022/08/11 03:52:14;;;;;;;6.53;3.97;;;;;;;18.42;72.39;100568.34;125321;1099;102781;-79
2022/08/11 03:54:55;;;;;;;7.93;4.07;;;;;;;18.45;72.66;100570.98;125322;1099;104291;-80
2022/08/11 03:58:12;;;;;;;5.13;3.53;;;;;;;18.50;72.57;100571.92;125298;1099;101976;-80
2022/08/11 04:01:21;;;;;;;7.07;4.20;;;;;;;18.55;72.12;100583.44;125369;1099;104432;-81
2022/08/11 04:04:28;;;;;;;8.73;4.10;;;;;;;18.60;72.51;100578.15;125272;1099;104211;-81
2022/08/11 04:07:36;;;;;;;9.03;3.97;;;;;;;18.65;72.17;100577.30;125407;1099;104274;-81
2022/08/11 04:10:30;;;;;;;9.33;4.13;;;;;;;18.69;71.76;100579.06;125780;1099;102006;-81
2022/08/11 04:13:44;;;;;;;7.80;4.08;;;;;;;18.75;71.81;100583.52;125312;1099;104351;-81
2022/08/11 04:16:41;;;;;;;7.28;4.20;;;;;;;18.80;72.10;100581.76;125139;1099;102883;-81
2022/08/11 04:19:54;;;;;;;9.17;3.80;;;;;;;18.84;72.14;100578.27;125356;1102;104383;-80
2022/08/11 04:22:41;;;;;;;5.90;4.10;;;;;;;18.89;71.94;100566.77;125597;1102;102097;-81
2022/08/11 04:25:46;;;;;;;7.53;3.73;;;;;;;18.96;71.48;100565.89;125305;1102;102251;-82
2022/08/11 04:28:48;;;;;;;7.83;4.13;;;;;;;19.02;71.36;100566.78;125528;1102;104250;-80
2022/08/11 04:31:43;;;;;;;7.07;4.23;;;;;;;19.09;71.18;100557.06;125232;1102;102226;-81
2022/08/11 04:34:55;;;;;;;6.50;3.73;;;;;;;19.15;70.95;100556.16;125524;1099;101870;-80
2022/08/11 04:38:14;;;;;;;9.17;3.93;;;;;;;19.24;70.62;100550.86;125527;1099;102354;-80
2022/08/11 04:44:26;;;;;;;10.87;3.83;;;;;;;19.42;70.24;100536.69;125229;1102;104192;-81
2022/08/11 05:03:21;;;;;;;6.47;3.63;;;;;;;19.86;69.48;100505.61;125085;1102;102416;-80
2022/08/11 05:06:51;;;;;;;6.83;3.80;;;;;;;19.82;68.38;100498.52;126066;1102;102435;-80
2022/08/11 05:09:37;;;;;;;6.73;3.87;;;;;;;19.81;68.53;100488.77;125026;1102;103120;-80
2022/08/11 05:12:21;;;;;;;7.55;3.80;;;;;;;19.80;68.97;100486.98;124838;1104;104322;-80
2022/08/11 05:35:43;;;;;;;5.47;3.97;;;;;;;19.86;68.79;100473.66;124973;1102;102209;-78
2022/08/11 05:56:19;;;;;;;8.20;3.93;;;;;;;20.38;67.45;100468.13;124662;1103;102071;-77
2022/08/11 05:58:55;;;;;;;7.37;4.00;;;;;;;20.60;67.37;100481.31;124407;1102;104082;-80
2022/08/11 06:01:38;;;;;;;9.33;4.30;;;;;;;20.76;67.00;100492.83;125148;1102;104207;-82
2022/08/11 06:04:22;;;;;;;6.20;4.00;;;;;;;20.91;67.46;100492.73;124926;1102;104236;-79
2022/08/11 06:07:07;;;;;;;6.60;3.70;;;;;;;21.05;66.38;100503.30;125770;1101;104222;-83
2022/08/11 06:10:02;;;;;;;8.00;3.50;;;;;;;21.17;66.28;100496.97;126580;1101;104069;-79
2022/08/11 06:12:59;;;;;;;7.97;3.80;;;;;;;21.30;64.75;100506.66;126302;1101;104118;-81
2022/08/11 06:15:50;;;;;;;7.00;3.40;;;;;;;21.41;64.36;100500.32;126795;1101;101608;-81
2022/08/11 06:18:53;;;;;;;6.13;3.37;;;;;;;21.49;63.56;100499.40;126005;1102;104163;-83
2022/08/11 06:21:48;;;;;;;5.37;3.60;;;;;;;21.52;64.01;100485.16;127061;1101;102474;-81
2022/08/11 06:24:51;;;;;;;6.37;3.37;;;;;;;21.52;62.45;100493.16;127255;1101;101546;-82
2022/08/11 06:27:35;;;;;;;4.83;3.07;;;;;;;21.50;63.04;100492.27;125522;1101;104256;-79
2022/08/11 06:37:39;;;;;;;5.17;3.30;;;;;;;21.60;61.24;100503.73;126843;1101;104246;-79
2022/08/11 06:41:29;;;;;;;5.17;3.47;;;;;;;21.57;60.76;100499.33;125887;1102;102390;-78
2022/08/11 06:44:13;;;;;;;4.67;3.30;;;;;;;21.60;61.09;100506.41;126272;1102;102185;-79
2022/08/11 06:46:54;;;;;;;6.87;3.50;;;;;;;21.60;61.19;100487.72;126082;1102;101888;-79
2022/08/11 06:52:55;;;;;;;7.80;3.53;;;;;;;21.61;60.38;100494.84;126124;1105;102435;-77
2022/08/11 07:06:27;;;;;;;;;;;;;;;;;;;;;
2022/08/11 07:16:01;;;;;;;5.37;3.50;;;;;;;22.39;58.17;100535.85;126037;1105;101456;-81
2022/08/11 08:21:32;;;;;;;5.13;3.27;;;;;;;24.58;52.31;100503.61;126756;1101;102254;-78
2022/08/11 08:24:46;;;;;;;4.57;3.07;;;;;;;24.69;51.47;100506.05;127119;1101;102015;-80
2022/08/11 08:27:57;;;;;;;5.93;2.93;;;;;;;24.64;49.07;100509.77;127156;1102;101644;-78
2022/08/11 08:31:01;;;;;;;3.27;2.80;;;;;;;24.60;49.61;100513.43;125458;1103;102444;-80
2022/08/11 08:34:01;;;;;;;7.40;3.00;;;;;;;24.50;50.23;100510.91;126546;1101;101673;-80
2022/08/11 08:36:37;;;;;;;3.40;3.00;;;;;;;24.64;49.66;100518.70;126088;1101;102171;-79
2022/08/11 08:39:21;;;;;;;5.20;3.00;;;;;;;24.69;49.00;100515.91;125763;1105;102766;-78
2022/08/11 08:42:09;;;;;;;3.87;3.17;;;;;;;24.85;49.38;100508.38;126252;1102;102148;-81
2022/08/11 08:44:57;;;;;;;4.83;2.83;;;;;;;24.97;49.29;100510.78;126289;1102;102092;-80
2022/08/11 08:48:01;;;;;;;3.20;2.80;;;;;;;25.06;48.96;100505.19;126360;1102;101581;-79
2022/08/11 08:53:45;;;;;;;;;;;;;;;;;;;;;
2022/08/11 08:56:32;;;;;;;5.07;2.93;;;;;;;25.48;48.78;100493.45;127233;1101;101450;-79
2022/08/11 08:59:12;;;;;;;5.60;2.90;;;;;;;25.47;48.61;100507.80;125919;1102;102981;-79
2022/08/11 09:02:19;;;;;;;4.50;2.80;;;;;;;25.52;48.58;100497.80;125903;1105;102452;-80
2022/08/11 09:05:07;;;;;;;;;;;;;;;25.78;48.69;100505.17;126356;1105;101185;-80
2022/08/11 09:07:46;;;;;;;4.57;2.90;;;;;;;26.05;47.95;100501.80;126319;1105;101911;-79
2022/08/11 09:10:33;;;;;;;5.93;2.80;;;;;;;26.15;48.19;100495.23;126319;1105;101635;-79
2022/08/11 09:13:27;;;;;;;3.93;2.87;;;;;;;26.11;46.75;100490.86;125546;1109;104246;-79
2022/08/11 09:16:16;;;;;;;;;;;;;;;25.91;46.28;100502.14;125339;1109;103271;-79
2022/08/11 09:19:19;;;;;;;7.83;3.03;;;;;;;25.80;47.38;100507.81;125295;1109;104175;-79
2022/08/11 09:28:10;;;;;;;3.70;3.10;;;;;;;25.82;46.92;100504.17;125359;1109;101981;-79
2022/08/11 09:33:56;;;;;;;4.07;2.50;;;;;;;25.96;46.82;100502.89;125649;1109;102429;-79
2022/08/11 09:46:18;;;;;;;5.43;2.77;;;;;;;25.91;46.49;100494.08;125893;1105;102291;-79
2022/08/11 09:49:13;;;;;;;6.17;2.70;;;;;;;25.83;47.06;100497.85;125955;1105;101852;-79
2022/08/11 09:52:08;;;;;;;3.23;2.93;;;;;;;25.90;46.62;100497.68;126010;1105;102079;-79
2022/08/11 09:55:03;;;;;;;4.50;3.03;;;;;;;26.14;46.38;100501.53;126278;1102;101677;-80
2022/08/11 09:58:15;;;;;;;4.40;3.10;;;;;;;26.41;46.41;100498.95;125798;1105;102474;-79
2022/08/11 10:00:51;;;;;;;7.23;3.27;;;;;;;26.53;46.41;100499.45;125249;1105;104053;-79
2022/08/11 10:03:28;;;;;;;4.57;2.90;;;;;;;26.60;46.62;100497.48;125358;1105;102408;-80
2022/08/11 10:09:08;;;;;;;;;;;;;;;26.43;46.41;100489.02;124991;1102;104239;-78
2022/08/11 10:11:45;;;;;;;3.57;3.00;;;;;;;26.35;46.56;100492.84;124304;1105;102959;-78
2022/08/11 10:17:23;;;;;;;4.67;3.00;;;;;;;26.26;46.71;100485.05;124842;1102;104173;-79
2022/08/11 10:20:01;;;;;;;6.40;3.33;;;;;;;26.30;47.05;100480.44;124859;1103;104146;-79
2022/08/11 10:36:07;;;;;;;6.20;3.50;;;;;;;25.73;46.69;100493.67;124914;1105;109171;-81
2022/08/11 10:38:51;;;;;;;5.73;3.67;;;;;;;25.67;46.58;100498.34;126121;1105;101606;-80
2022/08/11 10:44:46;;;;;;;5.00;3.87;;;;;;;25.48;46.62;100496.14;125430;1105;102294;-79
2022/08/11 10:47:43;;;;;;;5.30;3.37;;;;;;;25.40;47.00;100493.65;125145;1105;104232;-79
2022/08/11 10:59:29;;;;;;;5.20;3.77;;;;;;;25.40;47.21;100492.75;125798;1102;104259;-78
2022/08/11 11:05:30;;;;;;;8.10;3.77;;;;;;;25.28;47.12;100488.56;125621;1102;104223;-79
2022/08/11 11:11:15;;;;;;;9.73;4.27;;;;;;;25.15;47.88;100487.98;126999;1101;101955;-80
2022/08/11 11:20:07;;;;;;;5.83;3.93;;;;;;;24.89;47.97;100485.94;125027;1102;104291;-80
2022/08/11 11:22:51;;;;;;;7.30;3.83;;;;;;;24.82;48.83;100482.49;125020;1102;102397;-79
2022/08/11 11:25:38;;;;;;;6.60;3.87;;;;;;;24.75;49.39;100492.49;125704;1102;101910;-81
2022/08/11 11:28:52;;;;;;;6.57;4.20;;;;;;;24.64;49.99;100494.55;125564;1102;101763;-81
2022/08/11 11:32:15;;;;;;;5.20;3.80;;;;;;;24.53;50.38;100485.84;126166;1101;102407;-81
2022/08/11 11:35:27;;;;;;;5.40;4.10;;;;;;;24.38;50.44;100479.87;125008;1105;102242;-78
2022/08/11 11:38:12;;;;;;;6.83;4.00;;;;;;;24.43;50.95;100484.27;125913;1105;102093;-82
2022/08/11 11:43:49;;;;;;;8.03;4.20;;;;;;;24.47;51.17;100478.80;124827;1105;104265;-80
2022/08/11 11:46:39;;;;;;;7.53;4.10;;;;;;;24.54;50.94;100471.48;124888;1105;104204;-79
2022/08/11 11:49:26;;;;;;;7.30;4.00;;;;;;;24.63;51.21;100471.31;124788;1105;102403;-79
2022/08/11 11:52:35;;;;;;;6.40;4.20;;;;;;;24.75;51.15;100467.47;124896;1105;104334;-80
2022/08/11 11:55:29;;;;;;;5.30;4.03;;;;;;;24.82;51.10;100473.57;124940;1102;104261;-80
2022/08/11 12:01:19;;;;;;;6.60;3.93;;;;;;;24.85;51.05;100465.45;124392;1102;102383;-79
2022/08/11 12:04:12;;;;;;;9.50;4.28;;;;;;;24.90;51.11;100472.48;125542;1102;104214;-79
2022/08/11 12:10:31;;;;;;;;;;;;;;;;;;;;;
2022/08/11 12:13:49;;;;;;;6.93;4.00;;;;;;;24.89;50.31;100459.97;125605;1102;101870;-79
2022/08/11 12:16:25;;;;;;;8.50;4.07;;;;;;;24.84;50.75;100461.89;125171;1102;104176;-77
2022/08/11 12:19:02;;;;;;;7.80;3.70;;;;;;;24.80;50.58;100465.55;125466;1102;102561;-79
2022/08/11 12:27:19;;;;;;;5.25;3.75;;;;;;;24.75;50.39;100457.61;124961;1102;104168;-79
2022/08/11 12:27:43;;;;;;;4.73;3.70;;;;;;;24.64;50.11;100459.67;125227;1102;102771;-81
2022/08/11 12:30:46;;;;;;;6.83;3.93;;;;;;;24.58;50.46;100463.37;127064;1100;102593;-81
2022/08/11 12:33:45;;;;;;;8.13;4.00;;;;;;;24.55;50.46;100454.48;125025;1101;102242;-80
2022/08/11 12:36:24;;;;;;;9.93;3.87;;;;;;;24.55;50.31;100446.44;126092;1101;101761;-81
2022/08/11 12:39:00;;;;;;;9.93;4.30;;;;;;;24.55;50.44;100443.75;125011;1100;104235;-79
2022/08/11 12:54:27;;;;;;;5.03;4.17;;;;;;;24.51;50.40;100444.73;125051;1100;104159;-80
2022/08/11 13:06:20;;;;;;;6.77;4.30;;;;;;;24.74;50.56;100444.23;125034;1102;104191;-81
2022/08/11 13:09:22;;;;;;;9.18;4.08;;;;;;;24.79;50.65;100447.68;124976;1102;104344;-80
2022/08/11 13:15:16;;;;;;;8.70;4.33;;;;;;;24.90;50.57;100442.05;125004;1102;104814;-79
2022/08/11 13:17:54;;;;;;;8.97;4.40;;;;;;;24.97;50.11;100437.44;125052;1102;104178;-78
2022/08/11 13:20:29;;;;;;;5.57;4.10;;;;;;;25.02;50.55;100446.25;124975;1102;102806;-77
2022/08/11 13:23:02;;;;;;;8.00;4.47;;;;;;;25.09;50.40;100440.69;124282;1101;104191;-78
2022/08/11 13:25:40;;;;;;;4.42;4.03;;;;;;;25.13;50.22;100438.80;124989;1102;104201;-78
2022/08/11 13:28:35;;;;;;;8.13;4.30;;;;;;;25.19;50.07;100435.95;124956;1102;104156;-78
2022/08/11 13:31:13;;;;;;;7.33;4.00;;;;;;;25.23;49.78;100426.05;126107;1101;104313;-76
2022/08/11 13:33:51;;;;;;;6.13;4.03;;;;;;;25.27;50.22;100427.70;124996;1102;104204;-76
2022/08/11 13:36:27;;;;;;;9.00;4.60;;;;;;;25.31;49.93;100429.43;125441;1102;102266;-76
2022/08/11 13:39:02;;;;;;;6.80;4.10;;;;;;;25.35;50.43;100431.09;124931;1102;104967;-77
2022/08/11 13:41:41;;;;;;;6.20;4.40;;;;;;;25.39;50.10;100422.05;124986;1102;102410;-76
2022/08/11 13:44:16;;;;;;;6.73;4.00;;;;;;;25.42;49.98;100421.09;124279;1102;101918;-78
2022/08/11 13:47:12;;;;;;;6.30;4.30;;;;;;;25.41;50.46;100420.19;124991;1102;104236;-78
2022/08/11 13:49:50;;;;;;;9.87;4.30;;;;;;;25.46;49.99;100414.69;125011;1102;104178;-78
2022/08/11 13:52:29;;;;;;;6.43;3.87;;;;;;;25.50;50.05;100413.70;124913;1102;108256;-78
2022/08/11 13:55:04;;;;;;;7.20;4.20;;;;;;;25.56;50.11;100418.03;125024;1102;102258;-77
2022/08/11 13:57:53;;;;;;;7.47;4.30;;;;;;;25.58;49.80;100418.86;125031;1102;104567;-79
2022/08/11 14:00:59;;;;;;;8.10;4.40;;;;;;;25.60;50.45;100415.22;125069;1102;104220;-78
2022/08/11 14:03:44;;;;;;;6.33;4.53;;;;;;;25.65;50.37;100415.09;125940;1101;104114;-80
2022/08/11 14:10:04;;;;;;;5.63;4.20;;;;;;;25.63;50.31;100409.76;125966;1102;104188;-80
2022/08/11 14:15:48;;;;;;;9.03;4.90;;;;;;;25.64;50.15;100411.50;125805;1102;104160;-80
2022/08/11 14:18:31;;;;;;;10.47;4.47;;;;;;;25.59;49.78;100408.06;125653;1102;104406;-80
2022/08/11 14:23:58;;;;;;;9.23;4.60;;;;;;;25.58;49.55;100408.11;125198;1102;104214;-78
2022/08/11 14:26:37;;;;;;;12.67;5.00;;;;;;;25.59;49.65;100402.70;124359;1102;104249;-78
2022/08/11 14:29:13;;;;;;;10.27;5.00;;;;;;;25.64;49.70;100402.57;124547;1102;102172;-79
2022/08/11 14:31:50;;;;;;;11.27;5.87;;;;;;;25.62;49.95;100399.92;125984;1102;103104;-79
2022/08/11 14:34:26;;;;;;;9.23;5.73;;;;;;;25.58;50.15;100398.23;125969;1101;108265;-78
2022/08/11 14:37:11;;;;;;;10.27;6.23;;;;;;;25.57;50.21;100398.28;126013;1102;101667;-78
2022/08/11 14:47:03;;;;;;;12.13;6.30;;;;;;;25.55;50.95;100392.95;126275;1102;101584;-78
2022/08/11 14:48:53;;;;;;;14.87;6.97;;;;;;;25.49;51.55;100385.06;126990;1100;102153;-78
2022/08/11 14:51:34;;;;;;;13.37;6.90;;;;;;;25.45;52.07;100383.41;126136;1102;101772;-78
2022/08/11 14:57:28;;;;;;;10.70;6.50;;;;;;;25.35;52.24;100388.12;125729;1105;102069;-78
2022/08/11 15:00:08;;;;;;;10.00;6.60;;;;;;;25.32;52.76;100393.58;125830;1105;104204;-78
2022/08/11 15:06:33;;;;;;;12.33;7.13;;;;;;;25.24;52.79;100395.56;125835;1105;101799;-79
2022/08/11 15:09:09;;;;;;;12.80;7.63;;;;;;;25.17;53.17;100399.35;126043;1105;104271;-79
2022/08/11 15:17:49;;;;;;;10.43;6.87;;;;;;;24.83;53.88;100397.53;126091;1102;102239;-79
2022/08/11 15:37:30;;;;;;;10.37;7.07;;;;;;;24.68;54.96;100412.19;126152;1102;101792;-78
2022/08/11 15:47:16;;;;;;;10.40;6.77;;;;;;;24.56;55.52;100413.34;126252;1102;102977;-78
2022/08/11 15:50:08;;;;;;;13.13;6.83;;;;;;;24.48;55.89;100413.52;126007;1102;103240;-79
2022/08/11 15:55:58;;;;;;;9.67;7.13;;;;;;;24.36;55.77;100417.35;126211;1102;101636;-78
2022/08/11 16:05:15;;;;;;;12.07;7.77;;;;;;;24.13;56.59;100419.67;127083;1098;108082;-78
2022/08/11 16:08:05;;;;;;;11.80;7.20;;;;;;;24.09;56.89;100420.64;126228;1102;101594;-78
2022/08/11 16:11:07;;;;;;;12.53;8.27;;;;;;;24.04;56.92;100415.38;126293;1099;101586;-78
2022/08/11 16:16:51;;;;;;;13.53;8.30;;;;;;;23.92;57.43;100431.70;127721;1098;101908;-78
2022/08/11 16:19:35;;;;;;;14.40;7.97;;;;;;;23.84;57.82;100429.18;126361;1099;102186;-78
2022/08/11 16:22:42;;;;;;;14.53;7.83;;;;;;;23.77;57.79;100419.48;126385;1099;101577;-78
2022/08/11 16:25:52;;;;;;;13.60;7.97;;;;;;;23.71;58.14;100430.33;125989;1102;110215;-78
2022/08/11 16:28:31;;;;;;;12.77;7.97;;;;;;;23.65;58.22;100434.91;126118;1102;101608;-80
2022/08/11 16:31:20;;;;;;;12.50;8.17;;;;;;;23.61;58.29;100434.98;126017;1102;103225;-79
2022/08/11 16:33:58;;;;;;;13.70;7.90;;;;;;;23.56;58.60;100426.14;125942;1102;101715;-78
2022/08/11 16:40:05;;;;;;;12.37;8.13;;;;;;;23.45;58.96;100432.59;126267;1102;101268;-78
2022/08/11 16:48:27;;;;;;;11.77;7.90;;;;;;;23.33;59.11;100441.72;125656;1102;102470;-78
2022/08/11 16:50:59;;;;;;;12.50;8.53;;;;;;;23.32;59.44;100444.42;126105;1102;104159;-79
2022/08/11 16:53:34;;;;;;;14.23;8.60;;;;;;;23.25;59.27;100451.70;124967;1102;104242;-79
2022/08/11 16:56:15;;;;;;;12.33;8.60;;;;;;;23.23;59.36;100450.81;125658;1102;104357;-80
2022/08/11 16:59:15;;;;;;;12.17;8.43;;;;;;;23.18;59.15;100447.34;125887;1102;103140;-79
2022/08/11 17:01:52;;;;;;;13.37;8.20;;;;;;;23.12;59.75;100458.16;125692;1102;104159;-79
2022/08/11 17:14:07;;;;;;;14.80;8.13;;;;;;;22.91;60.09;100460.24;125223;1102;102174;-79
2022/08/11 17:16:44;;;;;;;13.90;8.47;;;;;;;22.88;59.97;100462.97;125039;1102;107512;-79
2022/08/11 17:19:21;;;;;;;13.13;8.80;;;;;;;22.84;59.84;100461.23;126159;1099;102210;-79
2022/08/11 17:24:50;;;;;;;15.23;9.03;;;;;;;22.78;60.49;100472.94;125159;1102;102070;-80
2022/08/11 17:27:26;;;;;;;14.03;9.10;;;;;;;22.74;60.05;100470.33;125418;1101;104326;-78
2022/08/11 17:30:04;;;;;;;15.50;9.40;;;;;;;22.68;60.17;100462.39;125671;1101;101775;-79
2022/08/11 17:35:31;;;;;;;15.10;9.60;;;;;;;22.61;60.71;100467.83;125127;1102;101818;-78
2022/08/11 17:38:08;;;;;;;14.40;9.13;;;;;;;22.56;60.46;100475.05;125186;1102;104153;-79
2022/08/11 17:49:19;;;;;;;14.60;9.27;;;;;;;22.41;61.04;100497.52;124832;1099;104194;-79
2022/08/11 18:00:36;;;;;;;18.70;12.23;;;;;;;22.19;62.07;100503.98;125815;1099;104208;-78
2022/08/11 18:03:31;;;;;;;19.33;12.67;;;;;;;22.14;62.35;100519.20;126212;1099;102887;-78
2022/08/11 18:06:06;;;;;;;19.30;13.07;;;;;;;22.07;62.30;100516.59;125463;1099;104406;-78
